This is the latest recevied weather packets stored in our database for station/object JA0BES-13. If no packets are shown the sender has not sent any weather packets the latest 10 day(s).
| Time | Temp. | Humidity | Pressure | Rain* | Wind** | Luminosity | Snow |
|---|---|---|---|---|---|---|---|
| 1787962590 | 20.56° C | 100% | 1008.4 hPa | 8.64 mm | - | - | - |
| 1787961990 | 20.56° C | 100% | 1008.2 hPa | 8.64 mm | - | - | - |
| 1787961389 | 20° C | 100% | 1007.9 hPa | 8.38 mm | - | - | - |
| 1787960789 | 20.56° C | 100% | 1008.4 hPa | 8.38 mm | - | - | - |
| 1787960189 | 20.56° C | 100% | 1008.1 hPa | 7.87 mm | - | - | - |
| 1787959589 | 20.56° C | 100% | 1007.8 hPa | 7.87 mm | - | - | - |
| 1787958988 | 20.56° C | 100% | 1008.1 hPa | 7.62 mm | - | - | - |
| 1787958388 | 20.56° C | 100% | 1008.8 hPa | 7.62 mm | - | - | - |
| 1787957787 | 20.56° C | 100% | 1007.9 hPa | 7.62 mm | - | - | - |
| 1787957187 | 20.56° C | 100% | 1008.2 hPa | 7.37 mm | - | - | - |
| 1787956587 | 21.11° C | 100% | 1009.5 hPa | 7.11 mm | - | - | - |
| 1787955987 | 21.11° C | 100% | 1008.4 hPa | 6.86 mm | - | - | - |
| 1787955386 | 20.56° C | 100% | 1008.4 hPa | 6.86 mm | - | - | - |
| 1787954786 | 21.11° C | 100% | 1009.4 hPa | 6.6 mm | - | - | - |
| 1787954185 | 21.11° C | 100% | 1009.5 hPa | 6.35 mm | - | - | - |
| 1787953585 | 20.56° C | 100% | 1009.2 hPa | 6.1 mm | - | - | - |
| 1787952984 | 20.56° C | 100% | 1008.9 hPa | 5.84 mm | - | - | - |
| 1787952384 | 21.11° C | 100% | 1009.9 hPa | 5.84 mm | - | - | - |
| 1787951784 | 21.11° C | 100% | 1009.1 hPa | 5.59 mm | - | - | - |
| 1787951184 | 21.11° C | 100% | 1010 hPa | 5.08 mm | - | - | - |
| 1787937977 | 21.67° C | 100% | 1010.8 hPa | 0 mm | - | - | - |
| 1787919965 | 22.78° C | 100% | 1011.8 hPa | 1.52 mm | - | - | - |
| 1787919365 | 22.78° C | 100% | 1011.7 hPa | 1.52 mm | - | - | - |
| 1787918765 | 22.78° C | 100% | 1011.7 hPa | 1.52 mm | - | - | - |
| 1787918164 | 22.78° C | 100% | 1011.7 hPa | 1.52 mm | - | - | - |
* Rain since midnight (hover to see other rain measurements)
** Current wind speed in m/s (hover to see current wind gust speed)